Time;durP1;ratioP1;P1;durP2;ratioP2;P2;SDS_P1;SDS_P2;PMS_P1;PMS_P2;Temp;Humidity;BMP_temperature;BMP_pressure;BME280_temperature;BME280_humidity;BME280_pressure;Samples;Min_cycle;Max_cycle;Signal;HPM_P1;HPM_P2
2021/07/29 00:00:54;;;;;;;5.38;2.90;;;;;;;20.59;49.48;100489.63;5034547;28;20074;-76
2021/07/29 00:03:20;;;;;;;6.57;2.20;;;;;;;20.59;49.36;100484.88;5034400;28;20555;-76
2021/07/29 00:05:47;;;;;;;4.70;2.10;;;;;;;20.62;49.33;100494.41;5034465;28;20025;-76
2021/07/29 00:08:12;;;;;;;4.70;2.30;;;;;;;20.50;49.62;100488.00;5034497;28;20022;-76
2021/07/29 00:10:38;;;;;;;3.78;2.28;;;;;;;20.57;49.40;100475.34;5034421;28;20036;-76
2021/07/29 00:13:04;;;;;;;5.68;2.78;;;;;;;20.54;49.38;100485.22;5034330;28;20040;-76
2021/07/29 00:15:30;;;;;;;5.25;2.50;;;;;;;20.21;50.44;100486.97;5033713;28;20031;-76
2021/07/29 00:20:24;;;;;;;8.80;3.13;;;;;;;20.42;49.78;100496.63;5034411;28;20029;-76
2021/07/29 00:22:54;;;;;;;5.55;2.47;;;;;;;20.38;49.96;100491.03;5034001;28;20360;-78
2021/07/29 00:25:21;;;;;;;11.90;3.45;;;;;;;20.34;50.12;100489.44;5034371;28;20037;-76
2021/07/29 00:27:47;;;;;;;4.63;1.80;;;;;;;20.42;49.68;100491.09;5033973;28;20108;-77
2021/07/29 00:30:14;;;;;;;7.57;3.50;;;;;;;20.31;49.95;100490.97;5032611;28;20036;-75
2021/07/29 00:32:41;;;;;;;5.32;2.50;;;;;;;20.02;50.95;100491.94;5033882;28;20084;-78
2021/07/29 00:35:14;;;;;;;5.75;3.13;;;;;;;20.03;50.87;100483.25;5033812;28;20388;-76
2021/07/29 00:37:49;;;;;;;4.47;2.13;;;;;;;19.99;51.08;100490.72;5033726;28;20049;-76
2021/07/29 00:40:21;;;;;;;7.30;2.38;;;;;;;19.97;51.12;100486.75;5033567;28;20037;-76
2021/07/29 00:42:47;;;;;;;11.35;2.97;;;;;;;20.03;50.68;100488.81;5033587;28;20033;-76
2021/07/29 00:45:13;;;;;;;7.47;2.33;;;;;;;19.94;51.21;100482.75;5032386;28;20033;-76
2021/07/29 00:47:41;;;;;;;7.53;2.92;;;;;;;20.12;50.33;100486.50;5033551;28;20024;-76
2021/07/29 00:50:10;;;;;;;5.45;2.53;;;;;;;20.04;50.69;100487.63;5033560;28;20021;-77
2021/07/29 00:52:36;;;;;;;6.03;2.53;;;;;;;20.11;50.28;100497.97;5033563;28;20108;-76
2021/07/29 00:55:02;;;;;;;6.70;2.65;;;;;;;20.03;50.55;100491.56;5033460;28;20104;-77
2021/07/29 00:57:28;;;;;;;9.38;2.55;;;;;;;20.07;50.49;100495.16;5033409;28;20494;-75
2021/07/29 00:59:53;;;;;;;5.57;2.33;;;;;;;20.07;50.42;100495.16;5033430;28;20025;-76
2021/07/29 01:02:19;;;;;;;8.63;2.58;;;;;;;19.99;50.54;100495.47;5033204;28;20022;-76
2021/07/29 01:04:46;;;;;;;7.55;2.85;;;;;;;20.10;49.92;100493.59;5033317;28;20029;-76
2021/07/29 01:07:12;;;;;;;4.13;2.55;;;;;;;20.04;50.38;100486.81;5033232;28;20017;-76
2021/07/29 01:09:39;;;;;;;7.35;2.78;;;;;;;20.13;49.97;100484.50;5033143;28;20155;-76
2021/07/29 01:12:06;;;;;;;7.50;2.53;;;;;;;19.94;50.56;100480.78;5033047;28;20434;-76
2021/07/29 01:14:32;;;;;;;9.93;2.22;;;;;;;20.06;50.30;100492.78;5033152;28;20021;-77
2021/07/29 01:16:57;;;;;;;6.95;2.97;;;;;;;20.17;49.71;100479.78;5033150;28;20380;-77
2021/07/29 01:19:25;;;;;;;3.80;2.00;;;;;;;19.73;51.31;100475.06;5033018;28;20091;-76
2021/07/29 01:21:55;;;;;;;5.43;2.60;;;;;;;19.98;50.40;100478.06;5032842;28;20021;-76
2021/07/29 01:24:26;;;;;;;5.57;2.83;;;;;;;19.73;51.09;100477.03;5033001;28;20036;-76
2021/07/29 01:26:53;;;;;;;7.35;2.53;;;;;;;19.80;50.79;100482.63;5032100;28;20025;-76
2021/07/29 01:29:19;;;;;;;3.83;2.30;;;;;;;19.86;50.40;100476.34;5032859;28;20030;-78
2021/07/29 01:31:45;;;;;;;5.13;2.28;;;;;;;19.83;50.61;100476.34;5032795;28;20032;-76
2021/07/29 01:34:11;;;;;;;13.55;3.75;;;;;;;19.79;50.79;100484.59;5032752;28;20100;-76
2021/07/29 01:36:36;;;;;;;6.90;2.70;;;;;;;20.00;50.14;100488.75;5032792;28;20026;-76
2021/07/29 01:39:02;;;;;;;6.65;2.80;;;;;;;20.00;50.07;100491.53;5032539;28;20045;-75
2021/07/29 01:41:28;;;;;;;4.93;2.40;;;;;;;19.86;50.33;100495.75;5032813;28;20036;-77
2021/07/29 01:43:54;;;;;;;7.53;2.90;;;;;;;19.99;50.08;100495.47;5032687;28;20033;-75
2021/07/29 01:46:20;;;;;;;4.50;2.25;;;;;;;20.05;49.77;100488.41;5032671;28;20018;-76
2021/07/29 01:48:46;;;;;;;4.70;2.53;;;;;;;19.87;50.25;100486.25;5032584;28;20472;-76
2021/07/29 01:51:11;;;;;;;9.52;2.70;;;;;;;19.94;50.13;100483.53;5032671;28;20028;-76
2021/07/29 01:53:37;;;;;;;5.15;2.35;;;;;;;19.97;50.08;100495.06;5032481;28;20022;-75
2021/07/29 01:56:07;;;;;;;8.98;2.60;;;;;;;19.82;50.34;100492.16;5031779;28;20026;-77
2021/07/29 01:58:32;;;;;;;8.07;2.60;;;;;;;19.67;51.04;100490.44;5031818;28;20613;-76
2021/07/29 02:00:58;;;;;;;5.22;2.38;;;;;;;19.82;50.51;100489.41;5032482;28;20065;-76
2021/07/29 02:03:23;;;;;;;4.25;2.25;;;;;;;19.77;50.61;100494.47;5032364;28;20041;-76
2021/07/29 02:05:49;;;;;;;4.97;2.22;;;;;;;19.62;51.07;100488.78;5032475;28;20038;-76
2021/07/29 02:08:15;;;;;;;5.90;3.03;;;;;;;19.87;50.33;100483.47;5032464;28;20392;-77
2021/07/29 02:10:40;;;;;;;6.80;2.45;;;;;;;19.72;50.91;100486.50;5032399;28;20040;-76
2021/07/29 02:13:06;;;;;;;4.97;2.65;;;;;;;19.94;50.13;100482.75;5032280;28;20057;-78
2021/07/29 02:15:31;;;;;;;3.33;1.95;;;;;;;19.85;50.56;100491.38;5032393;28;20451;-76
2021/07/29 02:17:58;;;;;;;6.85;2.58;;;;;;;19.91;50.30;100487.09;5032329;28;20461;-76
2021/07/29 02:20:25;;;;;;;5.72;2.40;;;;;;;19.65;51.04;100490.03;5032271;28;20036;-76
2021/07/29 02:22:51;;;;;;;7.05;2.50;;;;;;;19.60;51.28;100484.81;5032148;28;20494;-77
2021/07/29 02:25:17;;;;;;;7.68;2.20;;;;;;;19.87;50.52;100483.47;5030956;28;20083;-75
2021/07/29 02:27:42;;;;;;;12.25;3.40;;;;;;;19.78;50.80;100484.97;5030942;28;20030;-76
2021/07/29 02:30:09;;;;;;;6.90;2.33;;;;;;;19.92;50.35;100488.69;5032259;28;20037;-76
2021/07/29 02:32:35;;;;;;;5.57;2.30;;;;;;;19.88;50.64;100487.06;5030614;28;20046;-76
2021/07/29 02:35:00;;;;;;;6.43;2.72;;;;;;;20.00;49.92;100480.44;5032211;28;20034;-78
2021/07/29 02:37:26;;;;;;;15.52;3.67;;;;;;;19.90;50.25;100481.94;5032248;28;20081;-75
2021/07/29 02:39:51;;;;;;;8.27;2.50;;;;;;;19.95;50.09;100479.63;5034441;28;20060;-76
2021/07/29 02:42:17;;;;;;;6.93;2.58;;;;;;;19.72;50.87;100487.28;5035605;28;20040;-76
2021/07/29 02:44:43;;;;;;;6.32;2.63;;;;;;;19.76;50.77;100484.56;5035962;28;20041;-76
2021/07/29 02:47:09;;;;;;;8.70;3.13;;;;;;;19.93;50.06;100481.97;5035840;28;20484;-77
2021/07/29 02:49:35;;;;;;;5.38;3.38;;;;;;;19.74;50.80;100484.97;5035814;28;20368;-76
2021/07/29 02:52:01;;;;;;;6.72;2.38;;;;;;;19.71;50.75;100480.16;5035722;28;20147;-76
2021/07/29 02:54:26;;;;;;;4.00;2.13;;;;;;;19.76;50.72;100471.50;5035708;28;20172;-76
2021/07/29 02:56:52;;;;;;;4.78;2.10;;;;;;;19.70;50.90;100475.00;5035678;28;20051;-76
2021/07/29 02:59:18;;;;;;;5.78;1.88;;;;;;;19.54;51.47;100481.56;5034314;28;20377;-76
2021/07/29 03:01:43;;;;;;;6.22;2.40;;;;;;;19.53;51.12;100488.28;5035180;28;20040;-77
2021/07/29 03:04:09;;;;;;;7.25;2.22;;;;;;;19.42;51.59;100479.03;5035550;28;20026;-76
2021/07/29 03:06:34;;;;;;;6.38;2.13;;;;;;;19.51;51.21;100478.75;5035418;28;20029;-77
2021/07/29 03:09:01;;;;;;;4.03;1.92;;;;;;;19.55;51.46;100471.25;5035493;28;20030;-76
2021/07/29 03:11:27;;;;;;;5.32;2.40;;;;;;;19.66;50.84;100477.75;5035409;28;20030;-76
2021/07/29 03:13:53;;;;;;;4.25;2.17;;;;;;;19.68;50.66;100478.97;5035285;28;20091;-77
2021/07/29 03:16:19;;;;;;;4.75;2.45;;;;;;;19.70;51.02;100466.69;5035327;28;20072;-76
2021/07/29 03:18:44;;;;;;;5.68;2.25;;;;;;;19.83;50.60;100470.78;5034067;28;20030;-76
2021/07/29 03:21:10;;;;;;;12.82;3.03;;;;;;;19.79;50.54;100470.72;5033436;28;20514;-76
2021/07/29 03:23:36;;;;;;;13.93;4.55;;;;;;;19.79;50.36;100470.72;5052649;28;20464;-76
2021/07/29 03:26:03;;;;;;;7.57;2.47;;;;;;;19.70;50.74;100477.78;5055119;28;20061;-76
2021/07/29 03:28:29;;;;;;;4.13;2.20;;;;;;;19.55;51.14;100476.81;5055056;28;20037;-77
2021/07/29 03:30:55;;;;;;;4.75;2.40;;;;;;;19.56;51.16;100483.94;5054911;28;20029;-76
2021/07/29 03:33:20;;;;;;;3.83;2.15;;;;;;;19.52;51.27;100477.56;5055003;28;20033;-76
2021/07/29 03:35:46;;;;;;;7.75;2.67;;;;;;;19.74;50.52;100479.41;5054956;28;20079;-76
2021/07/29 03:38:12;;;;;;;9.75;2.60;;;;;;;19.46;51.59;100476.31;5054891;28;20495;-76
2021/07/29 03:40:38;;;;;;;7.32;2.17;;;;;;;19.66;50.68;100472.22;5054574;28;20399;-76
2021/07/29 03:43:06;;;;;;;7.78;2.40;;;;;;;19.59;51.07;100477.69;5054743;28;20079;-77
2021/07/29 03:45:33;;;;;;;6.78;2.20;;;;;;;19.47;51.22;100480.69;5054659;28;20021;-76
2021/07/29 03:47:59;;;;;;;7.30;2.22;;;;;;;19.49;51.40;100481.09;5053241;28;20472;-76
2021/07/29 03:50:26;;;;;;;8.82;2.30;;;;;;;19.58;50.89;100489.94;5053897;28;20032;-76
2021/07/29 03:52:53;;;;;;;7.47;3.53;;;;;;;19.40;51.73;100493.28;5054520;28;20029;-78
2021/07/29 03:55:18;;;;;;;5.95;2.10;;;;;;;19.32;51.97;100491.59;5053274;28;20024;-76
2021/07/29 03:57:44;;;;;;;7.97;2.75;;;;;;;19.50;51.14;100494.59;5054549;28;20024;-76
2021/07/29 04:00:10;;;;;;;5.30;2.63;;;;;;;19.49;51.31;100497.72;5054466;28;20017;-78
2021/07/29 04:02:36;;;;;;;4.78;2.15;;;;;;;19.55;50.82;100504.53;5052920;28;20060;-76
2021/07/29 04:05:03;;;;;;;4.22;2.33;;;;;;;19.49;51.37;100495.75;5052541;28;20040;-78
2021/07/29 04:07:29;;;;;;;9.25;2.60;;;;;;;19.58;51.06;100496.28;5054296;28;20049;-76
2021/07/29 04:09:54;;;;;;;3.70;2.00;;;;;;;19.60;51.12;100490.34;5054252;28;20058;-75
2021/07/29 04:12:20;;;;;;;6.82;2.10;;;;;;;19.59;51.02;100495.09;5054188;28;20037;-76
2021/07/29 04:14:46;;;;;;;3.90;2.25;;;;;;;19.77;50.47;100500.81;5054265;28;20090;-76
2021/07/29 04:17:12;;;;;;;9.32;2.85;;;;;;;19.79;50.35;100495.69;5054198;28;20468;-76
2021/07/29 04:19:38;;;;;;;7.25;2.50;;;;;;;19.54;51.24;100491.84;5054048;28;20025;-76
2021/07/29 04:22:06;;;;;;;7.30;2.70;;;;;;;19.82;50.55;100485.81;5053857;28;20538;-76
2021/07/29 04:24:31;;;;;;;7.78;2.20;;;;;;;19.58;51.18;100498.25;5054039;28;20025;-77
2021/07/29 04:26:58;;;;;;;6.40;2.17;;;;;;;19.55;51.56;100493.44;5052771;28;20083;-76
2021/07/29 04:29:25;;;;;;;4.90;2.30;;;;;;;19.62;51.19;100494.34;5054055;28;20052;-76
2021/07/29 04:31:51;;;;;;;12.77;3.00;;;;;;;19.66;51.09;100506.28;5054064;28;20089;-76
2021/07/29 04:34:17;;;;;;;7.18;2.88;;;;;;;19.50;51.55;100507.66;5053767;28;20029;-75
2021/07/29 04:36:43;;;;;;;15.02;4.47;;;;;;;19.62;51.09;100507.41;5053711;28;20170;-77
2021/07/29 04:39:09;;;;;;;9.48;3.60;;;;;;;19.70;50.99;100511.03;5053640;28;20513;-77
2021/07/29 04:41:42;;;;;;;8.90;2.85;;;;;;;19.58;51.22;100509.34;5053744;28;20104;-76
2021/07/29 04:44:09;;;;;;;7.95;2.95;;;;;;;19.93;50.00;100509.69;5053656;28;20029;-76
2021/07/29 04:46:35;;;;;;;11.32;4.25;;;;;;;19.89;50.35;100508.06;5053677;28;20078;-75
2021/07/29 04:49:03;;;;;;;5.00;2.40;;;;;;;20.04;49.98;100511.78;5053493;28;20025;-75
2021/07/29 04:51:28;;;;;;;7.28;3.50;;;;;;;19.99;50.08;100512.91;5053476;28;20033;-76
2021/07/29 04:53:54;;;;;;;8.30;2.90;;;;;;;19.91;50.24;100517.59;5052074;28;20033;-76
2021/07/29 04:56:19;;;;;;;8.85;2.80;;;;;;;19.86;50.54;100515.16;5053364;28;20036;-75
2021/07/29 04:58:47;;;;;;;10.38;3.75;;;;;;;19.86;50.58;100526.25;5053229;28;20017;-75
2021/07/29 05:01:13;;;;;;;9.07;4.10;;;;;;;19.94;50.23;100518.81;5053178;28;20039;-76
2021/07/29 05:03:39;;;;;;;12.90;4.20;;;;;;;19.97;50.25;100515.28;5053070;28;20188;-75
2021/07/29 05:06:04;;;;;;;9.70;4.05;;;;;;;19.87;50.64;100515.97;5052055;28;20028;-76
2021/07/29 05:08:30;;;;;;;7.45;3.35;;;;;;;19.83;50.73;100527.03;5053153;28;20361;-75
2021/07/29 05:10:55;;;;;;;10.20;2.88;;;;;;;19.83;50.86;100521.47;5053118;28;20017;-75
2021/07/29 05:13:21;;;;;;;10.70;3.72;;;;;;;19.91;50.72;100517.59;5053104;28;20048;-77
2021/07/29 05:15:46;;;;;;;8.25;3.13;;;;;;;19.86;51.05;100534.56;5053120;28;20028;-76
2021/07/29 05:18:12;;;;;;;7.40;3.75;;;;;;;19.98;50.44;100522.41;5052975;28;20526;-76
2021/07/29 05:20:37;;;;;;;5.60;2.70;;;;;;;19.81;51.01;100523.84;5052898;28;20101;-77
2021/07/29 05:23:03;;;;;;;6.53;3.28;;;;;;;19.82;50.93;100525.44;5068276;28;20040;-76
2021/07/29 05:25:29;;;;;;;9.70;4.20;;;;;;;19.94;50.79;100533.47;5052345;28;20537;-92
2021/07/29 05:27:55;;;;;;;11.35;3.70;;;;;;;19.71;51.28;100532.81;5053111;28;20111;-75
2021/07/29 05:30:20;;;;;;;4.68;2.70;;;;;;;19.82;51.18;100525.44;5052840;28;20100;-75
2021/07/29 05:32:46;;;;;;;6.05;3.30;;;;;;;20.08;50.35;100537.56;5052724;28;20025;-76
2021/07/29 05:35:12;;;;;;;9.63;3.22;;;;;;;20.19;49.86;100544.81;5052772;28;20020;-75
2021/07/29 05:37:38;;;;;;;12.55;4.95;;;;;;;20.35;49.77;100541.75;5052732;28;20025;-75
2021/07/29 05:40:08;;;;;;;9.68;4.88;;;;;;;20.26;50.02;100532.97;5051247;28;20417;-75
2021/07/29 05:42:33;;;;;;;9.77;2.75;;;;;;;20.14;50.99;100534.06;5052487;28;20025;-75
2021/07/29 05:44:59;;;;;;;11.60;3.30;;;;;;;20.23;50.50;100539.28;5052617;28;20498;-75
2021/07/29 05:47:25;;;;;;;10.48;4.72;;;;;;;20.43;50.18;100537.88;5052562;28;20467;-75
2021/07/29 05:49:50;;;;;;;6.93;2.55;;;;;;;20.60;49.90;100535.63;5052541;28;20021;-75
2021/07/29 05:52:16;;;;;;;13.38;4.10;;;;;;;20.37;50.50;100533.06;5052327;28;20778;-75
2021/07/29 05:54:41;;;;;;;9.93;3.08;;;;;;;20.63;50.00;100545.94;5050778;28;20025;-77
2021/07/29 05:57:07;;;;;;;10.45;2.80;;;;;;;20.63;50.12;100543.19;5039075;28;20491;-74
2021/07/29 05:59:33;;;;;;;7.88;2.75;;;;;;;21.02;49.09;100547.03;5041165;28;20025;-75
2021/07/29 06:01:58;;;;;;;7.05;3.05;;;;;;;21.01;49.01;100547.41;5042123;28;20021;-76
2021/07/29 06:04:24;;;;;;;10.82;2.70;;;;;;;20.87;49.27;100547.31;5042789;28;20053;-75
2021/07/29 06:06:49;;;;;;;7.63;3.20;;;;;;;20.81;49.28;100544.09;5038349;28;20143;-75
2021/07/29 06:09:15;;;;;;;5.45;2.83;;;;;;;20.56;49.73;100545.94;5032409;28;20026;-76
2021/07/29 06:11:41;;;;;;;3.90;1.98;;;;;;;20.80;49.07;100541.72;5032626;28;20487;-74
2021/07/29 06:14:06;;;;;;;14.52;3.65;;;;;;;20.82;48.93;100545.69;5036553;28;20030;-77
2021/07/29 06:16:32;;;;;;;27.90;6.38;;;;;;;20.55;49.73;100544.31;5036542;28;20049;-76
2021/07/29 06:19:04;;;;;;;8.15;2.83;;;;;;;20.84;48.82;100550.84;5036417;28;20104;-76
2021/07/29 06:21:31;;;;;;;6.78;2.90;;;;;;;20.94;48.75;100553.72;5036487;28;20391;-77
2021/07/29 06:23:57;;;;;;;7.43;2.90;;;;;;;20.89;48.92;100554.06;5035024;28;20446;-76
2021/07/29 06:26:22;;;;;;;6.13;2.30;;;;;;;20.88;48.97;100557.25;5036361;28;20029;-77
2021/07/29 06:28:48;;;;;;;9.10;2.58;;;;;;;20.95;48.86;100552.53;5036802;28;20104;-89
2021/07/29 06:31:13;;;;;;;8.57;2.85;;;;;;;21.31;48.11;100542.44;5037108;28;20033;-85
2021/07/29 06:33:39;;;;;;;9.35;3.05;;;;;;;21.27;48.23;100563.00;5036066;28;20098;-87
2021/07/29 06:36:05;;;;;;;6.75;2.60;;;;;;;21.29;48.47;100549.53;5035208;28;20026;-75
2021/07/29 06:38:31;;;;;;;7.95;2.45;;;;;;;21.38;48.27;100551.97;5036207;28;20047;-72
2021/07/29 06:40:56;;;;;;;6.68;2.40;;;;;;;21.30;48.32;100540.00;5034784;28;20030;-71
2021/07/29 06:43:22;;;;;;;10.43;2.33;;;;;;;21.49;48.12;100547.25;5036216;28;20025;-73
2021/07/29 06:45:47;;;;;;;10.02;2.85;;;;;;;21.56;47.65;100556.41;5035977;28;20025;-72
2021/07/29 06:48:13;;;;;;;7.53;2.28;;;;;;;21.79;47.33;100564.41;5034589;28;20057;-72
2021/07/29 06:50:38;;;;;;;32.15;3.90;;;;;;;22.03;46.79;100548.97;5035834;28;20022;-73
2021/07/29 06:53:04;;;;;;;7.55;3.00;;;;;;;22.12;46.54;100552.19;5034853;28;20496;-73
2021/07/29 06:55:29;;;;;;;7.68;2.75;;;;;;;22.34;46.12;100554.97;5035763;28;20028;-73
2021/07/29 06:57:56;;;;;;;5.13;2.55;;;;;;;22.34;46.24;100547.44;5035639;28;20100;-72
2021/07/29 07:00:21;;;;;;;13.52;2.33;;;;;;;22.43;45.85;100555.38;5035717;28;20017;-73
2021/07/29 07:02:47;;;;;;;6.85;2.03;;;;;;;22.30;45.90;100549.44;5035451;28;20087;-73
2021/07/29 07:05:12;;;;;;;7.18;2.08;;;;;;;22.21;45.91;100564.91;5035553;28;20032;-74
2021/07/29 07:07:38;;;;;;;7.10;2.35;;;;;;;22.11;46.06;100572.06;5035236;28;20021;-73
2021/07/29 07:10:04;;;;;;;7.07;2.45;;;;;;;22.47;45.27;100564.53;5035326;28;20029;-75
2021/07/29 07:12:29;;;;;;;9.65;2.92;;;;;;;22.42;45.96;100581.63;5035361;28;20029;-74
2021/07/29 07:14:55;;;;;;;8.68;2.55;;;;;;;22.23;46.06;100570.91;5035404;28;20083;-73
2021/07/29 07:17:20;;;;;;;16.83;3.75;;;;;;;22.62;44.89;100554.97;5035347;28;20056;-74
2021/07/29 07:19:47;;;;;;;7.00;2.08;;;;;;;22.69;45.02;100568.09;5034085;28;20036;-73
2021/07/29 07:22:13;;;;;;;7.05;1.73;;;;;;;22.85;44.43;100573.25;5035200;28;20490;-74
2021/07/29 07:24:39;;;;;;;6.97;2.30;;;;;;;22.57;45.10;100580.44;5033896;28;20030;-73
2021/07/29 07:27:07;;;;;;;4.68;1.73;;;;;;;22.77;44.35;100580.03;5034357;28;20028;-75
2021/07/29 07:29:34;;;;;;;11.70;3.53;;;;;;;22.78;44.58;100578.84;5034281;28;20029;-73
2021/07/29 07:31:59;;;;;;;6.07;1.73;;;;;;;23.07;43.72;100588.75;5033760;28;20512;-75
2021/07/29 07:34:25;;;;;;;11.50;2.28;;;;;;;23.04;44.02;100583.19;5049449;28;20067;-74
2021/07/29 07:36:51;;;;;;;8.00;2.38;;;;;;;23.30;43.17;100582.72;5052709;28;20583;-88
2021/07/29 07:39:16;;;;;;;6.82;2.40;;;;;;;23.42;43.50;100582.25;5053633;28;20515;-74
2021/07/29 07:41:42;;;;;;;5.80;1.55;;;;;;;23.72;42.72;100589.34;5055019;28;20024;-74
2021/07/29 07:44:07;;;;;;;8.85;2.95;;;;;;;23.98;42.69;100576.84;5054843;28;20025;-73
2021/07/29 07:46:33;;;;;;;4.55;1.65;;;;;;;24.11;42.13;100586.34;5054600;28;20063;-77
2021/07/29 07:48:58;;;;;;;6.18;1.48;;;;;;;24.23;41.96;100591.41;5060521;28;20100;-74
2021/07/29 07:51:24;;;;;;;8.05;1.52;;;;;;;24.01;42.28;100581.59;5062006;28;20475;-74
2021/07/29 07:53:50;;;;;;;8.18;1.90;;;;;;;24.04;41.69;100580.81;5055820;28;20383;-75
2021/07/29 07:56:16;;;;;;;6.50;2.05;;;;;;;24.26;41.34;100596.19;5056698;28;20054;-74
2021/07/29 07:58:42;;;;;;;8.02;1.50;;;;;;;24.41;41.02;100601.69;5054836;28;20062;-74
2021/07/29 08:01:07;;;;;;;13.30;2.88;;;;;;;24.49;40.93;100598.44;5054314;28;20021;-76
2021/07/29 08:03:33;;;;;;;7.75;2.22;;;;;;;24.73;40.44;100601.44;5041083;28;20030;-77
2021/07/29 08:06:03;;;;;;;5.75;1.33;;;;;;;24.46;40.43;100593.66;5034326;28;20032;-74
2021/07/29 08:08:28;;;;;;;;;;;;;;;24.47;40.33;100605.63;5034937;28;20026;-75
2021/07/29 08:10:53;;;;;;;4.40;1.80;;;;;;;24.97;39.37;100608.00;5031292;28;19925;-74
2021/07/29 08:13:19;;;;;;;5.93;1.73;;;;;;;25.19;39.08;100617.78;5032376;28;20032;-74
2021/07/29 08:15:45;;;;;;;8.40;2.45;;;;;;;24.94;39.73;100622.78;5032380;28;20421;-75
2021/07/29 08:18:11;;;;;;;10.07;2.10;;;;;;;24.45;40.62;100625.59;5032259;28;20388;-74
2021/07/29 08:20:41;;;;;;;4.97;1.70;;;;;;;24.66;39.89;100624.63;5032307;28;20122;-75
2021/07/29 08:23:07;;;;;;;;;;;;;;;24.34;40.82;100622.91;5032533;28;20036;-74
2021/07/29 08:25:33;;;;;;;6.75;1.98;;;;;;;24.04;41.29;100617.09;5033224;28;19917;-75
2021/07/29 08:27:59;;;;;;;5.55;1.77;;;;;;;24.32;40.71;100619.69;5033953;28;20017;-74
2021/07/29 08:30:24;;;;;;;6.82;2.13;;;;;;;24.08;41.12;100624.22;5033950;28;20029;-74
2021/07/29 08:32:50;;;;;;;6.80;1.98;;;;;;;24.22;40.65;100623.34;5032318;28;20072;-74
2021/07/29 08:35:17;;;;;;;8.43;2.25;;;;;;;24.44;40.43;100624.00;5033482;28;20025;-74
2021/07/29 08:37:46;;;;;;;8.65;1.92;;;;;;;23.99;41.54;100632.25;5033852;28;20036;-74
2021/07/29 08:40:16;;;;;;;13.13;2.10;;;;;;;24.41;41.11;100644.41;5033518;28;20447;-74
2021/07/29 08:42:42;;;;;;;7.07;2.42;;;;;;;24.37;41.17;100637.22;5033670;28;20092;-75
2021/07/29 08:45:08;;;;;;;4.95;1.55;;;;;;;24.50;40.81;100627.97;5033611;28;20029;-75
2021/07/29 08:47:34;;;;;;;8.00;1.23;;;;;;;24.88;40.37;100645.59;5032323;28;20033;-76
2021/07/29 08:50:06;;;;;;;7.68;2.55;;;;;;;25.11;39.84;100647.81;5033657;28;20531;-77
2021/07/29 08:52:32;;;;;;;6.68;2.30;;;;;;;25.05;40.17;100640.28;5033424;28;20037;-77
2021/07/29 08:54:59;;;;;;;4.50;1.58;;;;;;;24.94;39.67;100651.53;5032230;28;20037;-77
2021/07/29 08:57:32;;;;;;;10.27;2.38;;;;;;;24.87;39.18;100652.41;5033535;28;20514;-77
2021/07/29 09:00:06;;;;;;;8.10;1.88;;;;;;;25.05;39.37;100648.66;5032235;28;20033;-77
2021/07/29 09:02:32;;;;;;;8.75;2.25;;;;;;;25.16;38.99;100649.34;5032757;28;20594;-76
2021/07/29 09:05:06;;;;;;;5.15;1.83;;;;;;;25.20;39.14;100647.31;5033297;28;20056;-76
2021/07/29 09:07:33;;;;;;;7.57;1.20;;;;;;;24.91;39.49;100653.16;5033370;28;20495;-77
2021/07/29 09:09:58;;;;;;;8.43;1.88;;;;;;;25.08;39.22;100656.22;5033260;28;20390;-77
2021/07/29 09:12:25;;;;;;;7.40;1.88;;;;;;;25.17;39.07;100662.13;5033223;28;20108;-77
2021/07/29 09:14:52;;;;;;;7.72;2.22;;;;;;;25.12;38.74;100654.19;5033160;28;20388;-77
2021/07/29 09:17:20;;;;;;;6.85;2.08;;;;;;;24.99;39.61;100667.06;5033251;28;20119;-77
2021/07/29 09:19:56;;;;;;;4.50;1.40;;;;;;;25.09;39.32;100657.78;5035880;28;20036;-77
2021/07/29 09:22:29;;;;;;;4.25;1.67;;;;;;;25.30;38.85;100656.78;5032816;28;20082;-77
2021/07/29 09:25:00;;;;;;;8.70;1.83;;;;;;;25.19;38.62;100648.53;5024119;28;20033;-76
2021/07/29 09:27:38;;;;;;;6.10;1.48;;;;;;;25.02;38.39;100667.03;5022161;28;20098;-77
2021/07/29 09:30:10;;;;;;;9.13;2.63;;;;;;;25.32;38.28;100660.78;5033631;28;20025;-76
2021/07/29 09:32:50;;;;;;;7.25;1.67;;;;;;;25.55;37.88;100656.53;5035726;28;20029;-77
2021/07/29 09:35:31;;;;;;;10.32;2.58;;;;;;;25.71;37.74;100657.56;5037153;28;20025;-75
2021/07/29 09:37:58;;;;;;;4.63;1.50;;;;;;;25.45;38.00;100653.44;5025566;28;20025;-75
2021/07/29 09:40:23;;;;;;;7.25;1.77;;;;;;;25.60;37.55;100664.44;5035625;28;20123;-76
2021/07/29 09:43:10;;;;;;;9.30;2.33;;;;;;;25.52;37.21;100660.16;5035583;28;20086;-74
2021/07/29 09:45:37;;;;;;;12.57;2.08;;;;;;;25.63;37.52;100660.84;5035779;28;20048;-75
2021/07/29 09:48:07;;;;;;;4.05;1.05;;;;;;;25.34;37.10;100652.75;5036606;28;20052;-74
2021/07/29 09:50:34;;;;;;;5.80;1.80;;;;;;;25.80;36.94;100650.66;5036026;28;20024;-75
2021/07/29 09:53:00;;;;;;;7.93;1.52;;;;;;;25.84;36.82;100654.97;5035495;28;20106;-75
2021/07/29 09:55:28;;;;;;;5.90;1.20;;;;;;;25.64;36.86;100662.41;5035693;28;20025;-75
2021/07/29 09:57:54;;;;;;;8.02;2.00;;;;;;;25.66;36.69;100660.00;5026852;28;20392;-81
2021/07/29 10:00:19;;;;;;;5.93;1.77;;;;;;;25.73;36.69;100657.94;5034998;28;20479;-77
2021/07/29 10:02:47;;;;;;;5.13;1.60;;;;;;;25.83;36.77;100650.59;5033811;28;20032;-77
2021/07/29 10:05:15;;;;;;;9.52;1.98;;;;;;;26.14;36.16;100642.97;5033330;28;20025;-75
2021/07/29 10:07:45;;;;;;;8.23;1.58;;;;;;;26.16;35.92;100653.78;5035079;28;20079;-75
2021/07/29 10:10:11;;;;;;;5.82;1.27;;;;;;;26.21;36.13;100656.88;5033470;28;20021;-75
2021/07/29 10:12:37;;;;;;;4.07;1.05;;;;;;;26.22;35.70;100652.06;5028863;28;20094;-75
2021/07/29 10:15:04;;;;;;;2.55;1.00;;;;;;;25.87;35.89;100654.16;5034578;28;20040;-75
2021/07/29 10:17:36;;;;;;;4.85;1.85;;;;;;;25.77;35.31;100660.69;5035227;28;20036;-74
2021/07/29 10:20:15;;;;;;;6.03;1.58;;;;;;;26.06;35.42;100652.69;5035182;28;20021;-74
2021/07/29 10:22:43;;;;;;;3.38;1.25;;;;;;;26.32;35.31;100659.53;5039469;28;20013;-74
2021/07/29 10:25:09;;;;;;;2.90;1.13;;;;;;;26.49;34.92;100660.50;5030497;28;20021;-74
2021/07/29 10:27:35;;;;;;;7.35;1.60;;;;;;;26.43;35.00;100654.59;5034525;28;20082;-74
2021/07/29 10:30:19;;;;;;;9.55;2.33;;;;;;;26.72;34.46;100659.75;5035423;28;20024;-74
2021/07/29 10:32:53;;;;;;;5.60;2.00;;;;;;;26.83;34.53;100660.38;5035706;28;20465;-74
2021/07/29 10:35:30;;;;;;;4.65;1.70;;;;;;;26.91;34.23;100673.06;5013501;28;20022;-74
2021/07/29 10:37:57;;;;;;;6.95;1.73;;;;;;;26.77;34.58;100664.88;5035302;28;20064;-74
2021/07/29 10:40:37;;;;;;;7.15;1.70;;;;;;;26.51;34.59;100667.25;5034102;28;20051;-74
2021/07/29 10:43:21;;;;;;;;;;;;;;;26.76;34.52;100664.09;5028017;28;20492;-74
2021/07/29 10:45:54;;;;;;;8.75;1.95;;;;;;;26.00;35.55;100669.19;5034734;28;20588;-74
2021/07/29 10:48:44;;;;;;;6.88;1.88;;;;;;;26.43;34.87;100667.81;5015855;28;20495;-72
2021/07/29 10:51:18;;;;;;;6.40;1.27;;;;;;;26.57;34.41;100675.19;5032910;28;20136;-74
2021/07/29 10:53:46;;;;;;;2.97;1.15;;;;;;;26.68;34.19;100673.03;5021311;28;20033;-74
2021/07/29 10:56:14;;;;;;;8.32;1.60;;;;;;;26.66;34.21;100648.22;5031842;28;20375;-75
2021/07/29 10:58:41;;;;;;;6.45;1.80;;;;;;;26.86;33.99;100670.72;5036258;28;20040;-75
2021/07/29 11:01:09;;;;;;;4.63;1.77;;;;;;;27.07;33.59;100673.19;5031114;28;20417;-75
2021/07/29 11:03:34;;;;;;;2.88;1.20;;;;;;;27.27;33.34;100664.78;5038498;28;20025;-75
2021/07/29 11:06:09;;;;;;;3.30;1.10;;;;;;;27.36;33.00;100662.25;5038494;28;20083;-75
2021/07/29 11:08:35;;;;;;;5.90;1.55;;;;;;;27.33;33.33;100673.50;5034533;28;20403;-74
2021/07/29 11:11:02;;;;;;;4.40;1.70;;;;;;;27.22;33.31;100673.72;5037738;28;20028;-75
2021/07/29 11:13:29;;;;;;;5.65;1.92;;;;;;;27.32;33.10;100664.31;5038117;28;20067;-74
2021/07/29 11:15:58;;;;;;;12.27;2.30;;;;;;;27.60;32.87;100667.78;5038283;28;20122;-74
2021/07/29 11:18:23;;;;;;;6.13;1.75;;;;;;;27.68;33.05;100666.44;5038412;28;20036;-75
2021/07/29 11:20:49;;;;;;;6.35;1.50;;;;;;;27.61;33.15;100667.34;5037748;28;20052;-74
2021/07/29 11:23:32;;;;;;;19.40;2.97;;;;;;;27.52;32.85;100655.91;5037394;28;20033;-75
2021/07/29 11:26:03;;;;;;;10.05;1.75;;;;;;;27.68;32.68;100669.25;5038275;28;20028;-75